createdAt,value
2019-02-28T00:01:51.581Z,35.17
2019-02-28T00:04:20.336Z,36.73
2019-02-28T00:06:49.057Z,37.37
2019-02-28T00:09:17.809Z,37.40
2019-02-28T00:11:46.529Z,37.63
2019-02-28T00:14:15.290Z,41.57
2019-02-28T00:16:44.002Z,41.77
2019-02-28T00:19:12.809Z,40.00
2019-02-28T00:21:41.493Z,38.90
2019-02-28T00:24:10.238Z,38.17
2019-02-28T00:26:38.954Z,40.10
2019-02-28T00:29:09.413Z,40.30
2019-02-28T00:31:38.138Z,44.53
2019-02-28T00:34:06.861Z,40.07
2019-02-28T00:36:35.567Z,38.80
2019-02-28T00:39:06.045Z,46.27
2019-02-28T00:41:34.853Z,42.37
2019-02-28T00:44:04.455Z,37.00
2019-02-28T00:46:33.387Z,37.23
2019-02-28T00:49:02.134Z,39.40
2019-02-28T00:51:30.846Z,36.73
2019-02-28T00:53:59.587Z,38.20
2019-02-28T00:56:28.313Z,38.83
2019-02-28T00:58:57.022Z,35.03
2019-02-28T01:01:25.743Z,41.53
2019-02-28T01:03:54.453Z,44.20
2019-02-28T01:06:23.157Z,42.20
2019-02-28T01:08:53.025Z,43.50
2019-02-28T01:11:22.425Z,40.07
2019-02-28T01:13:51.153Z,37.20
2019-02-28T01:16:20.130Z,41.07
2019-02-28T01:18:48.921Z,42.90
2019-02-28T01:21:17.641Z,43.00
2019-02-28T01:23:46.376Z,40.90
2019-02-28T01:26:15.177Z,46.13
2019-02-28T01:28:43.977Z,42.57
2019-02-28T01:31:12.711Z,48.00
2019-02-28T01:33:41.440Z,38.10
2019-02-28T01:36:12.244Z,38.47
2019-02-28T01:38:40.629Z,43.57
2019-02-28T01:41:11.203Z,45.27
2019-02-28T01:43:39.886Z,41.10
2019-02-28T01:46:08.653Z,40.90
2019-02-28T01:48:37.368Z,43.50
2019-02-28T01:51:06.067Z,42.20
2019-02-28T01:53:34.910Z,43.37
2019-02-28T01:56:03.657Z,37.30
2019-02-28T01:58:32.390Z,41.50
2019-02-28T02:01:01.197Z,42.40
2019-02-28T02:03:29.906Z,43.17
2019-02-28T02:05:58.635Z,47.37
2019-02-28T02:08:27.428Z,42.67
2019-02-28T02:10:56.199Z,39.57
2019-02-28T02:13:24.941Z,42.87
2019-02-28T02:15:53.701Z,43.87
2019-02-28T02:18:22.405Z,45.57
2019-02-28T02:20:51.244Z,46.77
2019-02-28T02:23:19.978Z,50.07
2019-02-28T02:25:48.711Z,45.93
2019-02-28T02:28:17.448Z,45.70
2019-02-28T02:30:50.514Z,43.23
2019-02-28T02:33:17.619Z,39.87
2019-02-28T02:35:46.371Z,45.50
2019-02-28T02:38:15.113Z,41.57
2019-02-28T02:40:43.855Z,42.13
2019-02-28T02:43:12.574Z,43.83
2019-02-28T02:45:43.483Z,47.83
2019-02-28T02:48:11.758Z,43.27
2019-02-28T02:50:40.637Z,49.80
2019-02-28T02:53:09.461Z,45.10
2019-02-28T02:55:38.191Z,47.53
2019-02-28T02:58:06.938Z,42.77
2019-02-28T03:00:35.694Z,41.17
2019-02-28T03:03:06.029Z,53.13
2019-02-28T03:05:35.937Z,50.20
2019-02-28T03:08:05.591Z,48.63
2019-02-28T03:10:34.324Z,49.97
2019-02-28T03:13:04.749Z,48.70
2019-02-28T03:15:33.494Z,50.27
2019-02-28T03:18:02.248Z,45.27
2019-02-28T03:20:30.964Z,46.93
2019-02-28T03:23:01.997Z,48.87
2019-02-28T03:25:30.198Z,46.00
2019-02-28T03:27:58.912Z,48.10
2019-02-28T03:30:32.413Z,46.23
2019-02-28T03:32:58.073Z,45.07
2019-02-28T03:35:40.176Z,48.37
2019-02-28T03:37:57.402Z,47.57
2019-02-28T03:40:26.156Z,46.63
2019-02-28T03:42:54.851Z,46.10
2019-02-28T03:45:23.585Z,52.40
2019-02-28T03:47:58.355Z,48.10
2019-02-28T03:50:23.151Z,52.27
2019-02-28T03:52:52.592Z,49.93
2019-02-28T03:55:21.294Z,47.10
2019-02-28T03:57:50.148Z,50.93
2019-02-28T04:00:19.473Z,52.03
2019-02-28T04:02:48.209Z,50.87
2019-02-28T04:05:17.093Z,51.73
2019-02-28T04:07:52.812Z,50.77
2019-02-28T04:10:20.552Z,54.77
2019-02-28T04:12:47.228Z,52.23
2019-02-28T04:15:16.469Z,54.80
2019-02-28T04:17:45.375Z,53.63
2019-02-28T04:20:14.264Z,51.27
2019-02-28T04:22:42.989Z,54.53
2019-02-28T04:25:11.991Z,54.70
2019-02-28T04:27:41.853Z,54.67
2019-02-28T04:30:11.455Z,52.47
2019-02-28T04:32:40.158Z,57.43
2019-02-28T04:35:08.980Z,52.87
2019-02-28T04:37:44.589Z,59.70
2019-02-28T04:40:08.469Z,53.70
2019-02-28T04:42:37.335Z,52.93
2019-02-28T04:45:07.330Z,54.17
2019-02-28T04:47:37.230Z,50.73
2019-02-28T04:50:06.679Z,55.97
2019-02-28T04:52:35.461Z,59.17
2019-02-28T04:55:04.443Z,54.53
2019-02-28T04:57:33.174Z,54.80
2019-02-28T05:00:01.917Z,53.93
2019-02-28T05:02:31.045Z,53.23
2019-02-28T05:04:59.885Z,52.80
2019-02-28T05:07:29.609Z,51.30
2019-02-28T05:09:59.190Z,55.33
2019-02-28T05:12:27.899Z,56.10
2019-02-28T05:14:58.417Z,54.40
2019-02-28T05:17:27.075Z,54.83
2019-02-28T05:19:55.843Z,58.10
2019-02-28T05:22:27.523Z,52.07
2019-02-28T05:24:54.998Z,48.87
2019-02-28T05:27:24.465Z,54.10
2019-02-28T05:29:53.421Z,48.97
2019-02-28T05:32:22.154Z,50.83
2019-02-28T05:34:51.820Z,52.93
2019-02-28T05:37:20.653Z,50.87
2019-02-28T05:39:49.370Z,47.93
2019-02-28T05:42:20.355Z,49.30
2019-02-28T05:44:48.647Z,53.43
2019-02-28T05:47:17.398Z,49.03
2019-02-28T05:49:46.097Z,48.63
2019-02-28T05:52:15.026Z,53.77
2019-02-28T05:54:43.772Z,44.10
2019-02-28T05:57:14.109Z,44.03
2019-02-28T05:59:42.823Z,45.60
2019-02-28T06:02:11.549Z,47.93
2019-02-28T06:04:40.285Z,48.20
2019-02-28T06:07:11.564Z,54.77
2019-02-28T06:09:40.266Z,52.80
2019-02-28T06:12:09.520Z,51.30
2019-02-28T06:14:38.993Z,47.97
2019-02-28T06:17:07.729Z,48.50
2019-02-28T06:19:36.497Z,46.53
2019-02-28T06:22:05.335Z,47.27
2019-02-28T06:24:34.057Z,43.80
2019-02-28T06:27:03.621Z,52.23
2019-02-28T06:29:33.249Z,44.57
2019-02-28T06:32:01.958Z,44.00
2019-02-28T06:34:30.673Z,44.87
2019-02-28T06:37:00.347Z,42.60
2019-02-28T06:39:29.851Z,41.20
2019-02-28T06:41:58.550Z,42.10
2019-02-28T06:44:27.743Z,46.60
2019-02-28T06:47:08.057Z,45.50
2019-02-28T06:49:40.983Z,45.10
2019-02-28T06:52:07.325Z,44.77
2019-02-28T06:54:36.025Z,44.67
2019-02-28T06:57:04.762Z,41.40
2019-02-28T06:59:36.249Z,42.13
2019-02-28T07:02:04.031Z,46.53
2019-02-28T07:04:32.834Z,40.33
2019-02-28T07:07:01.566Z,44.57
2019-02-28T07:09:30.517Z,42.17
2019-02-28T07:11:59.485Z,34.53
2019-02-28T07:14:28.185Z,44.13
2019-02-28T07:16:56.913Z,42.07
2019-02-28T07:19:26.296Z,47.50
2019-02-28T07:21:55.745Z,41.33
2019-02-28T07:24:24.484Z,43.30
2019-02-28T07:26:53.320Z,41.67
2019-02-28T07:29:22.017Z,51.33
2019-02-28T07:31:50.742Z,37.67
2019-02-28T07:34:22.055Z,44.80
2019-02-28T07:36:49.949Z,46.73
2019-02-28T07:39:18.665Z,41.27
2019-02-28T07:41:47.414Z,42.23
2019-02-28T07:44:21.038Z,44.63
2019-02-28T07:46:46.588Z,43.27
2019-02-28T07:49:15.425Z,45.67
2019-02-28T07:51:44.235Z,39.00
2019-02-28T07:54:15.869Z,45.40
2019-02-28T07:56:44.295Z,51.17
2019-02-28T07:59:13.270Z,46.97
2019-02-28T08:01:42.013Z,45.90
2019-02-28T08:04:10.755Z,49.07
2019-02-28T08:06:42.598Z,52.53
2019-02-28T08:09:22.447Z,48.23
2019-02-28T08:11:51.676Z,48.83
2019-02-28T08:14:21.734Z,53.50
2019-02-28T08:16:50.485Z,52.57
2019-02-28T08:19:19.207Z,58.57
2019-02-28T08:21:50.439Z,61.77
2019-02-28T08:24:18.417Z,59.47
2019-02-28T08:26:47.149Z,66.43
2019-02-28T08:29:16.015Z,59.23
2019-02-28T08:31:44.730Z,52.80
2019-02-28T08:34:13.625Z,62.20
2019-02-28T08:36:43.828Z,59.30
2019-02-28T08:39:16.477Z,68.27
2019-02-28T08:41:45.397Z,61.27
2019-02-28T08:44:14.372Z,59.60
2019-02-28T08:46:43.493Z,60.77
2019-02-28T08:49:13.667Z,60.57
2019-02-28T08:51:43.241Z,57.17
2019-02-28T08:54:13.286Z,65.97
2019-02-28T08:56:42.090Z,59.73
2019-02-28T08:59:11.971Z,55.67
2019-02-28T09:01:43.482Z,63.17
2019-02-28T09:04:11.475Z,65.13
2019-02-28T09:06:40.888Z,64.30
2019-02-28T09:09:11.761Z,69.73
2019-02-28T09:11:40.477Z,66.63
2019-02-28T09:14:10.388Z,69.57
2019-02-28T09:16:39.719Z,63.33
2019-02-28T09:19:09.173Z,62.30
2019-02-28T09:21:37.882Z,64.67
2019-02-28T09:24:09.397Z,62.77
2019-02-28T09:26:37.425Z,64.27
2019-02-28T09:29:06.165Z,64.03
2019-02-28T09:31:38.824Z,61.63
2019-02-28T09:34:05.416Z,62.93
2019-02-28T09:36:34.170Z,62.30
2019-02-28T09:39:04.290Z,59.87
2019-02-28T09:41:33.015Z,66.90
2019-02-28T09:44:01.735Z,62.90
2019-02-28T09:46:30.458Z,59.17
2019-02-28T09:48:59.991Z,65.73
2019-02-28T09:51:31.718Z,68.20
2019-02-28T09:53:59.215Z,70.90
2019-02-28T09:56:27.953Z,64.33
2019-02-28T09:58:56.710Z,66.77
2019-02-28T10:01:25.947Z,70.47
2019-02-28T10:03:55.354Z,67.93
2019-02-28T10:06:24.959Z,70.47
2019-02-28T10:08:53.681Z,86.80
2019-02-28T10:11:23.698Z,117.93
2019-02-28T10:13:53.177Z,83.30
2019-02-28T10:16:22.840Z,72.27
2019-02-28T10:18:51.553Z,69.93
2019-02-28T10:21:20.285Z,69.97
2019-02-28T10:23:49.154Z,67.53
2019-02-28T10:26:18.014Z,75.30
2019-02-28T10:28:46.704Z,70.17
2019-02-28T10:31:15.459Z,67.40
2019-02-28T10:33:44.174Z,67.43
2019-02-28T10:36:15.286Z,71.47
2019-02-28T10:38:44.026Z,72.17
2019-02-28T10:41:15.470Z,78.03
2019-02-28T10:43:49.935Z,71.27
2019-02-28T10:46:16.571Z,71.93
2019-02-28T10:48:50.763Z,73.87
2019-02-28T10:51:15.679Z,72.13
2019-02-28T10:53:44.401Z,69.03
2019-02-28T10:56:13.858Z,70.63
2019-02-28T10:58:42.631Z,67.17
2019-02-28T11:01:12.299Z,72.03
2019-02-28T11:03:41.105Z,70.13
2019-02-28T11:06:09.829Z,69.63
2019-02-28T11:08:38.609Z,76.13
2019-02-28T11:11:10.535Z,66.47
2019-02-28T11:13:38.133Z,73.23
2019-02-28T11:16:06.969Z,72.53
2019-02-28T11:18:36.490Z,69.37
2019-02-28T11:21:05.421Z,75.17
2019-02-28T11:23:34.226Z,72.47
2019-02-28T11:26:03.029Z,93.00
2019-02-28T11:28:31.810Z,74.67
2019-02-28T11:31:00.689Z,83.43
2019-02-28T11:33:29.658Z,77.07
2019-02-28T11:35:59.413Z,71.00
2019-02-28T11:38:28.370Z,74.67
2019-02-28T11:40:57.699Z,79.43
2019-02-28T11:43:26.857Z,79.37
2019-02-28T11:45:56.520Z,76.00
2019-02-28T11:48:26.654Z,80.50
2019-02-28T11:50:55.365Z,83.30
2019-02-28T11:53:24.112Z,77.43
2019-02-28T11:55:53.588Z,77.93
2019-02-28T11:58:23.291Z,75.17
2019-02-28T12:00:52.187Z,85.90
2019-02-28T12:03:20.989Z,77.80
2019-02-28T12:05:50.714Z,77.80
2019-02-28T12:08:20.046Z,80.53
2019-02-28T12:10:48.902Z,76.50
2019-02-28T12:13:19.654Z,76.13
2019-02-28T12:15:48.240Z,79.80
2019-02-28T12:18:16.957Z,79.83
2019-02-28T12:20:45.729Z,69.00
2019-02-28T12:23:14.657Z,69.33
2019-02-28T12:25:43.634Z,63.57
2019-02-28T12:28:12.421Z,65.03
2019-02-28T12:30:41.353Z,65.13
2019-02-28T12:33:10.103Z,61.33
2019-02-28T12:35:40.693Z,55.93
2019-02-28T12:38:09.576Z,60.97
2019-02-28T12:40:38.339Z,60.93
2019-02-28T12:43:08.751Z,58.57
2019-02-28T12:45:38.385Z,53.17
2019-02-28T12:48:07.358Z,55.83
2019-02-28T12:50:36.272Z,54.53
2019-02-28T12:53:05.185Z,60.77
2019-02-28T12:55:35.499Z,61.67
2019-02-28T12:58:04.816Z,70.03
2019-02-28T13:00:35.700Z,70.23
2019-02-28T13:03:04.774Z,82.53
2019-02-28T13:05:33.493Z,76.47
2019-02-28T13:08:05.721Z,74.63
2019-02-28T13:10:32.930Z,73.30
2019-02-28T13:13:06.391Z,76.60
2019-02-28T13:15:32.391Z,76.33
2019-02-28T13:18:07.491Z,72.87
2019-02-28T13:20:36.753Z,62.07
2019-02-28T13:23:05.747Z,69.23
2019-02-28T13:25:34.672Z,78.60
2019-02-28T13:28:03.466Z,73.43
2019-02-28T13:30:32.360Z,63.37
2019-02-28T13:33:01.149Z,60.73
2019-02-28T13:35:30.520Z,66.57
2019-02-28T13:37:59.468Z,64.33
2019-02-28T13:40:28.331Z,63.17
2019-02-28T13:42:57.203Z,67.77
2019-02-28T13:45:26.460Z,67.07
2019-02-28T13:47:55.373Z,67.03
2019-02-28T13:50:26.932Z,58.27
2019-02-28T13:52:56.733Z,63.13
2019-02-28T13:55:25.718Z,62.23
2019-02-28T13:57:54.517Z,57.57
2019-02-28T14:00:25.498Z,53.00
2019-02-28T14:02:56.265Z,53.60
2019-02-28T14:05:25.131Z,45.63
2019-02-28T14:07:53.861Z,49.17
2019-02-28T14:10:23.566Z,43.93
2019-02-28T14:12:57.183Z,54.77
2019-02-28T14:15:29.146Z,44.50
2019-02-28T14:17:58.009Z,45.67
2019-02-28T14:20:27.730Z,45.73
2019-02-28T14:22:57.302Z,43.33
2019-02-28T14:25:26.324Z,48.43
2019-02-28T14:27:56.967Z,40.47
2019-02-28T14:30:26.692Z,38.63
2019-02-28T14:32:55.509Z,45.50
2019-02-28T14:35:25.107Z,37.00
2019-02-28T14:37:55.583Z,43.67
2019-02-28T14:40:24.456Z,39.03
2019-02-28T14:42:53.182Z,34.13
2019-02-28T14:45:22.263Z,36.80
2019-02-28T14:47:56.794Z,31.20
2019-02-28T14:50:22.857Z,23.80
2019-02-28T14:52:53.037Z,25.80
2019-02-28T14:55:21.854Z,25.40
2019-02-28T14:57:50.724Z,34.47
2019-02-28T15:00:27.517Z,23.83
2019-02-28T15:02:59.441Z,22.57
2019-02-28T15:05:27.230Z,26.27
2019-02-28T15:07:56.795Z,22.17
2019-02-28T15:10:25.714Z,21.80
2019-02-28T15:12:55.360Z,15.47
2019-02-28T15:15:25.398Z,18.37
2019-02-28T15:17:54.137Z,12.53
2019-02-28T15:20:23.010Z,12.63
2019-02-28T15:22:52.510Z,12.80
2019-02-28T15:25:22.375Z,12.47
2019-02-28T15:27:51.170Z,10.87
2019-02-28T15:30:22.485Z,13.63
2019-02-28T15:32:54.282Z,12.53
2019-02-28T15:35:22.782Z,12.70
2019-02-28T15:37:51.713Z,13.43
2019-02-28T15:40:25.804Z,14.23
2019-02-28T15:42:56.371Z,17.57
2019-02-28T15:45:26.849Z,19.63
2019-02-28T15:47:59.171Z,18.07
2019-02-28T15:50:27.131Z,13.40
2019-02-28T15:52:55.962Z,17.37
2019-02-28T15:55:24.942Z,15.00
2019-02-28T15:57:54.207Z,17.50
2019-02-28T16:00:25.218Z,12.60
2019-02-28T16:02:54.170Z,17.10
2019-02-28T16:05:26.875Z,14.43
2019-02-28T16:07:57.038Z,15.77
2019-02-28T16:10:28.609Z,18.33
2019-02-28T16:12:58.188Z,11.00
2019-02-28T16:15:27.079Z,18.03
2019-02-28T16:17:55.871Z,15.77
2019-02-28T16:20:25.117Z,12.80
2019-02-28T16:22:53.898Z,17.00
2019-02-28T16:25:25.138Z,13.70
2019-02-28T16:27:54.035Z,21.77
2019-02-28T16:30:23.128Z,13.87
2019-02-28T16:32:51.920Z,12.07
2019-02-28T16:35:20.686Z,11.90
2019-02-28T16:37:49.406Z,11.87
2019-02-28T16:40:20.790Z,9.50
2019-02-28T16:42:49.638Z,10.17
2019-02-28T16:45:31.809Z,7.87
2019-02-28T16:48:03.194Z,8.57
2019-02-28T16:50:33.503Z,9.23
2019-02-28T16:53:02.282Z,11.80
2019-02-28T16:55:31.845Z,14.00
2019-02-28T16:58:00.952Z,10.33
2019-02-28T17:00:29.901Z,11.53
2019-02-28T17:02:58.761Z,13.30
2019-02-28T17:05:28.350Z,13.63
2019-02-28T17:07:57.373Z,16.70
2019-02-28T17:10:30.990Z,11.40
2019-02-28T17:13:25.016Z,10.03
2019-02-28T17:16:01.419Z,12.20
2019-02-28T17:18:29.586Z,11.40
2019-02-28T17:20:58.344Z,14.93
2019-02-28T17:23:27.162Z,12.57
2019-02-28T17:25:56.523Z,11.27
2019-02-28T17:28:49.851Z,11.00
2019-02-28T17:31:37.010Z,10.67
2019-02-28T17:34:05.939Z,17.03
2019-02-28T17:36:34.715Z,13.17
2019-02-28T17:39:04.094Z,12.90
2019-02-28T17:41:34.044Z,13.90
2019-02-28T17:44:34.045Z,13.23
2019-02-28T17:47:04.794Z,15.70
2019-02-28T17:50:17.175Z,12.53
2019-02-28T17:53:10.377Z,11.60
2019-02-28T17:56:04.879Z,19.63
2019-02-28T17:59:08.792Z,15.77
2019-02-28T18:01:53.488Z,13.53
2019-02-28T18:04:50.085Z,12.63
2019-02-28T18:07:57.824Z,15.57
2019-02-28T18:11:00.247Z,15.80
2019-02-28T18:14:02.518Z,14.40
2019-02-28T18:16:44.469Z,15.03
2019-02-28T18:19:44.631Z,15.97
2019-02-28T18:22:40.770Z,13.90
2019-02-28T18:25:38.177Z,15.73
2019-02-28T18:28:36.463Z,19.70
2019-02-28T18:31:19.137Z,16.03
2019-02-28T18:33:54.569Z,12.70
2019-02-28T18:36:25.600Z,15.57
2019-02-28T18:38:54.313Z,14.43
2019-02-28T18:41:25.253Z,13.70
2019-02-28T18:43:53.961Z,15.50
2019-02-28T18:46:22.781Z,11.57
2019-02-28T18:48:54.288Z,13.03
2019-02-28T18:51:21.957Z,16.13
2019-02-28T18:53:50.726Z,12.93
2019-02-28T18:56:19.557Z,13.27
2019-02-28T18:58:48.274Z,12.00
2019-02-28T19:01:17.151Z,13.77
2019-02-28T19:03:45.968Z,14.93
2019-02-28T19:06:14.746Z,18.97
2019-02-28T19:08:43.466Z,13.73
2019-02-28T19:11:12.205Z,16.80
2019-02-28T19:13:41.055Z,15.00
2019-02-28T19:16:09.814Z,20.60
2019-02-28T19:18:38.602Z,15.63
2019-02-28T19:21:07.323Z,12.17
2019-02-28T19:23:36.048Z,15.23
2019-02-28T19:26:04.965Z,18.00
2019-02-28T19:28:33.694Z,15.40
2019-02-28T19:31:02.478Z,12.67
2019-02-28T19:33:31.253Z,16.87
2019-02-28T19:35:59.995Z,15.00
2019-02-28T19:38:28.714Z,13.17
2019-02-28T19:40:57.518Z,12.93
2019-02-28T19:43:26.303Z,16.27
2019-02-28T19:45:55.548Z,14.93
2019-02-28T19:48:24.395Z,14.90
2019-02-28T19:50:53.154Z,10.90
2019-02-28T19:53:22.010Z,13.90
2019-02-28T19:55:50.742Z,15.37
2019-02-28T19:58:19.459Z,13.20
2019-02-28T20:00:48.217Z,16.07
2019-02-28T20:03:17.085Z,18.27
2019-02-28T20:05:45.886Z,13.57
2019-02-28T20:08:14.835Z,12.23
2019-02-28T20:10:43.657Z,20.07
2019-02-28T20:13:12.375Z,16.37
2019-02-28T20:15:41.956Z,18.60
2019-02-28T20:18:10.842Z,20.27
2019-02-28T20:20:40.185Z,22.40
2019-02-28T20:23:09.150Z,17.97
2019-02-28T20:25:38.029Z,15.40
2019-02-28T20:28:06.790Z,13.67
2019-02-28T20:30:35.749Z,11.53
2019-02-28T20:33:04.595Z,17.60
2019-02-28T20:35:33.483Z,14.40
2019-02-28T20:38:02.305Z,18.00
2019-02-28T20:40:31.077Z,16.07
2019-02-28T20:42:59.862Z,15.60
2019-02-28T20:45:28.714Z,10.13
2019-02-28T20:47:57.717Z,13.23
2019-02-28T20:50:29.726Z,12.77
2019-02-28T20:52:58.470Z,17.07
2019-02-28T20:55:27.404Z,12.90
2019-02-28T20:57:56.222Z,17.03
2019-02-28T21:00:26.077Z,13.93
2019-02-28T21:02:54.946Z,14.43
2019-02-28T21:05:24.118Z,12.57
2019-02-28T21:07:53.081Z,15.13
2019-02-28T21:10:21.901Z,13.83
2019-02-28T21:12:50.722Z,12.83
2019-02-28T21:15:19.441Z,13.13
2019-02-28T21:17:48.254Z,12.93
2019-02-28T21:20:17.151Z,14.70
2019-02-28T21:22:45.991Z,14.10
2019-02-28T21:25:14.942Z,14.37
2019-02-28T21:27:43.716Z,14.37
2019-02-28T21:30:15.274Z,13.87
2019-02-28T21:32:43.997Z,13.27
2019-02-28T21:35:13.010Z,14.90
2019-02-28T21:37:41.982Z,15.57
2019-02-28T21:40:11.540Z,11.40
2019-02-28T21:42:40.278Z,12.17
2019-02-28T21:45:10.164Z,15.90
2019-02-28T21:47:40.896Z,15.50
2019-02-28T21:50:13.614Z,15.10
2019-02-28T21:52:42.394Z,17.37
2019-02-28T21:55:14.571Z,22.93
2019-02-28T21:57:43.678Z,22.17
2019-02-28T22:00:17.974Z,14.00
2019-02-28T22:02:49.835Z,16.60
2019-02-28T22:05:18.646Z,17.27
2019-02-28T22:07:52.182Z,17.33
2019-02-28T22:10:21.291Z,16.07
2019-02-28T22:12:50.150Z,14.40
2019-02-28T22:15:19.157Z,14.87
2019-02-28T22:17:47.906Z,19.47
2019-02-28T22:20:16.887Z,19.73
2019-02-28T22:22:51.707Z,18.13
2019-02-28T22:25:20.510Z,18.70
2019-02-28T22:27:49.330Z,18.80
2019-02-28T22:30:47.265Z,19.03
2019-02-28T22:33:23.524Z,22.97
2019-02-28T22:35:54.941Z,21.53
2019-02-28T22:38:23.649Z,17.13
2019-02-28T22:40:52.388Z,22.83
2019-02-28T22:43:22.148Z,21.73
2019-02-28T22:45:50.917Z,21.40
2019-02-28T22:48:22.398Z,21.30
2019-02-28T22:50:51.130Z,24.67
2019-02-28T22:53:19.853Z,19.60
2019-02-28T22:55:51.677Z,23.20
2019-02-28T22:58:20.441Z,17.30
2019-02-28T23:00:59.670Z,20.03
2019-02-28T23:03:29.806Z,19.60
2019-02-28T23:06:01.399Z,18.97
2019-02-28T23:08:31.127Z,19.43
2019-02-28T23:10:59.953Z,15.80
2019-02-28T23:13:28.922Z,18.80
2019-02-28T23:15:57.737Z,17.93
2019-02-28T23:18:26.558Z,19.90
2019-02-28T23:20:55.355Z,17.47
2019-02-28T23:23:24.069Z,15.73
2019-02-28T23:25:53.072Z,17.20
2019-02-28T23:28:27.064Z,17.73
2019-02-28T23:31:18.751Z,18.87
2019-02-28T23:33:47.542Z,17.43
2019-02-28T23:36:16.274Z,19.40
2019-02-28T23:38:45.024Z,21.57
2019-02-28T23:41:14.001Z,24.90
2019-02-28T23:43:46.814Z,21.93
2019-02-28T23:46:15.570Z,20.10
2019-02-28T23:48:44.314Z,21.23
2019-02-28T23:51:13.133Z,23.43
2019-02-28T23:53:41.914Z,23.97
2019-02-28T23:56:10.678Z,22.83
2019-02-28T23:58:39.466Z,27.27
